Time;durP1;ratioP1;P1;durP2;ratioP2;P2;SDS_P1;SDS_P2;PMS_P1;PMS_P2;Temp;Humidity;BMP_temperature;BMP_pressure;BME280_temperature;BME280_humidity;BME280_pressure;Samples;Min_cycle;Max_cycle;Signal;HPM_P1;HPM_P2
2024/02/11 00:01:36;;;;;;;44.40;22.60;;;;;;;1.44;100.00;98815.94;105872;1257;70331;-76
2024/02/11 00:04:04;;;;;;;37.40;21.40;;;;;;;1.45;100.00;98813.18;105788;1254;72514;-75
2024/02/11 00:06:33;;;;;;;50.20;21.00;;;;;;;1.47;100.00;98812.33;105952;1250;61154;-76
2024/02/11 00:09:02;;;;;;;44.80;21.30;;;;;;;1.41;100.00;98811.77;106024;1256;60400;-77
2024/02/11 00:11:30;;;;;;;33.10;19.90;;;;;;;1.37;100.00;98809.69;106020;1256;73887;-74
2024/02/11 00:13:58;;;;;;;36.00;20.00;;;;;;;1.39;100.00;98807.05;105921;1250;70699;-76
2024/02/11 00:16:26;;;;;;;42.80;19.90;;;;;;;1.40;100.00;98800.16;105835;1255;71866;-75
2024/02/11 00:18:53;;;;;;;42.10;20.20;;;;;;;1.41;100.00;98803.09;105978;1253;60621;-74
2024/02/11 00:21:22;;;;;;;37.70;19.50;;;;;;;1.43;100.00;98802.19;105933;1250;60377;-75
2024/02/11 00:23:49;;;;;;;40.70;20.10;;;;;;;1.40;100.00;98802.45;105765;1251;71570;-75
2024/02/11 00:26:17;;;;;;;43.20;19.20;;;;;;;1.34;100.00;98798.75;105919;1250;69976;-75
2024/02/11 00:28:44;;;;;;;43.20;21.10;;;;;;;1.34;100.00;98796.71;105926;1251;73600;-75
2024/02/11 00:31:12;;;;;;;30.10;18.50;;;;;;;1.34;100.00;98797.34;105994;1253;60873;-75
2024/02/11 00:33:39;;;;;;;43.00;20.20;;;;;;;1.34;100.00;98798.23;105948;1251;60603;-74
2024/02/11 00:36:08;;;;;;;35.30;19.00;;;;;;;1.31;100.00;98793.14;105780;1253;73826;-76
2024/02/11 00:38:35;;;;;;;38.90;20.60;;;;;;;1.34;100.00;98791.48;105994;1250;69375;-75
2024/02/11 00:41:04;;;;;;;43.50;17.80;;;;;;;1.41;100.00;98793.11;106508;1251;71345;-75
2024/02/11 00:43:32;;;;;;;36.50;18.50;;;;;;;1.39;100.00;98792.25;106368;1253;60492;-75
2024/02/11 00:46:00;;;;;;;36.10;18.60;;;;;;;1.39;100.00;98795.58;107757;1250;60422;-74
2024/02/11 00:48:28;;;;;;;44.00;18.80;;;;;;;1.44;100.00;98798.25;108036;1250;71466;-75
2024/02/11 00:50:56;;;;;;;32.50;17.80;;;;;;;1.49;100.00;98793.65;106230;1258;68783;-74
2024/02/11 00:53:25;;;;;;;39.00;18.00;;;;;;;1.52;100.00;98801.45;105972;1253;71781;-74
2024/02/11 00:55:54;;;;;;;39.60;18.10;;;;;;;1.58;100.00;98799.70;105979;1253;61972;-76
2024/02/11 00:58:21;;;;;;;42.10;19.40;;;;;;;1.62;100.00;98802.00;105831;1251;60480;-77
2024/02/11 01:00:49;;;;;;;39.20;18.50;;;;;;;1.63;100.00;98804.32;105985;1250;73803;-75
2024/02/11 01:03:20;;;;;;;40.10;18.90;;;;;;;1.68;100.00;98808.02;105963;1250;70220;-74
2024/02/11 01:05:48;;;;;;;38.40;17.10;;;;;;;1.70;100.00;98807.03;106157;1255;71428;-74
2024/02/11 01:08:16;;;;;;;37.50;17.40;;;;;;;1.65;100.00;98803.45;106347;1250;60548;-73
2024/02/11 01:10:44;;;;;;;34.90;18.90;;;;;;;1.66;100.00;98808.07;106452;1250;60572;-76
2024/02/11 01:13:13;;;;;;;30.60;16.60;;;;;;;1.67;100.00;98799.02;106547;1251;73894;-74
2024/02/11 01:15:40;;;;;;;28.40;16.90;;;;;;;1.62;100.00;98795.14;106379;1251;69107;-75
2024/02/11 01:18:09;;;;;;;36.80;18.10;;;;;;;1.58;100.00;98799.15;106801;1256;71289;-74
2024/02/11 01:20:37;;;;;;;34.20;17.50;;;;;;;1.61;100.00;98809.22;106994;1251;61477;-75
2024/02/11 01:23:04;;;;;;;53.00;18.60;;;;;;;1.65;100.00;98805.23;106111;1250;60469;-74
2024/02/11 01:25:32;;;;;;;34.00;18.90;;;;;;;1.65;100.00;98803.93;106844;1253;72350;-75
2024/02/11 01:28:00;;;;;;;38.10;19.20;;;;;;;1.64;100.00;98805.40;107255;1257;69945;-75
2024/02/11 01:30:27;;;;;;;32.70;16.80;;;;;;;1.68;100.00;98806.00;107086;1253;72781;-72
2024/02/11 01:32:57;;;;;;;33.30;16.70;;;;;;;1.67;100.00;98803.96;107808;1250;60520;-74
2024/02/11 01:35:25;;;;;;;34.30;16.80;;;;;;;1.60;100.00;98805.11;108647;1251;59141;-74
2024/02/11 01:37:53;;;;;;;37.00;18.10;;;;;;;1.54;100.00;98804.04;108880;1250;72611;-75
2024/02/11 01:40:21;;;;;;;28.70;16.60;;;;;;;1.52;100.00;98804.86;108561;1250;68981;-75
2024/02/11 01:42:55;;;;;;;47.80;17.70;;;;;;;1.52;100.00;98812.23;107946;1251;72900;-74
2024/02/11 01:45:22;;;;;;;41.40;16.90;;;;;;;1.54;100.00;98809.59;107670;1257;60362;-74
2024/02/11 01:47:50;;;;;;;36.30;17.60;;;;;;;1.51;100.00;98808.83;107237;1250;60540;-74
2024/02/11 01:50:18;;;;;;;37.30;18.90;;;;;;;1.52;100.00;98807.39;106293;1250;72578;-75
2024/02/11 01:52:47;;;;;;;33.60;17.80;;;;;;;1.54;100.00;98805.41;106005;1257;69030;-75
2024/02/11 01:55:18;;;;;;;28.60;17.80;;;;;;;1.54;100.00;98805.99;105875;1252;74135;-76
2024/02/11 01:57:47;;;;;;;28.20;17.70;;;;;;;1.52;100.00;98811.76;105878;1254;60805;-75
2024/02/11 02:00:17;;;;;;;33.40;19.70;;;;;;;1.51;100.00;98813.08;105938;1256;60521;-77
2024/02/11 02:02:45;;;;;;;35.90;18.10;;;;;;;1.47;100.00;98809.91;105942;1250;75355;-76
2024/02/11 02:05:14;;;;;;;33.20;18.00;;;;;;;1.42;100.00;98809.44;105898;1257;69423;-76
2024/02/11 02:07:42;;;;;;;37.60;19.10;;;;;;;1.46;100.00;98815.86;105843;1256;72569;-75
2024/02/11 02:10:10;;;;;;;31.60;18.60;;;;;;;1.51;100.00;98817.34;105947;1253;60782;-75
2024/02/11 02:12:37;;;;;;;29.70;19.40;;;;;;;1.53;100.00;98814.63;105944;1256;60414;-76
2024/02/11 02:15:08;;;;;;;37.90;20.40;;;;;;;1.50;100.00;98815.52;106057;1256;72580;-74
2024/02/11 02:17:36;;;;;;;33.90;18.30;;;;;;;1.51;100.00;98820.02;106085;1256;69723;-75
2024/02/11 02:20:07;;;;;;;38.40;20.80;;;;;;;1.52;100.00;98816.59;106007;1256;73135;-75
2024/02/11 02:22:35;;;;;;;40.30;20.20;;;;;;;1.50;100.00;98818.86;105929;1257;60547;-76
2024/02/11 02:25:04;;;;;;;29.10;17.40;;;;;;;1.49;100.00;98816.67;105943;1250;60656;-76
2024/02/11 02:27:31;;;;;;;31.90;19.30;;;;;;;1.50;100.00;98819.55;105896;1256;72575;-74
2024/02/11 02:29:59;;;;;;;31.40;17.50;;;;;;;1.48;100.00;98827.97;105838;1256;70116;-76
2024/02/11 02:32:26;;;;;;;34.70;19.80;;;;;;;1.47;100.00;98827.91;105978;1251;72637;-75
2024/02/11 02:34:54;;;;;;;35.30;19.30;;;;;;;1.42;100.00;98835.77;105935;1253;60516;-76
2024/02/11 02:37:22;;;;;;;33.40;18.10;;;;;;;1.44;100.00;98831.10;106033;1250;60543;-74
2024/02/11 02:39:49;;;;;;;38.50;18.40;;;;;;;1.48;100.00;98831.44;105939;1256;71938;-74
2024/02/11 02:42:16;;;;;;;36.50;18.20;;;;;;;1.50;100.00;98828.96;106247;1250;71129;-75
2024/02/11 02:44:45;;;;;;;32.70;18.20;;;;;;;1.49;100.00;98821.27;107645;1257;71938;-74
2024/02/11 02:47:13;;;;;;;34.00;18.00;;;;;;;1.51;100.00;98819.11;108351;1260;60412;-73
2024/02/11 02:49:42;;;;;;;37.80;18.80;;;;;;;1.57;100.00;98818.80;106965;1251;60310;-74
2024/02/11 02:52:10;;;;;;;34.60;20.00;;;;;;;1.56;100.00;98813.34;106057;1253;72372;-75
2024/02/11 02:54:37;;;;;;;37.50;20.20;;;;;;;1.55;100.00;98814.27;106096;1250;70143;-76
2024/02/11 02:57:07;;;;;;;36.60;19.20;;;;;;;1.63;100.00;98813.88;105854;1256;72776;-75
2024/02/11 02:59:35;;;;;;;34.50;21.00;;;;;;;1.68;100.00;98815.88;105945;1252;60489;-75
2024/02/11 03:02:03;;;;;;;40.10;22.10;;;;;;;1.66;100.00;98815.08;105869;1250;60542;-75
2024/02/11 03:04:31;;;;;;;34.70;19.20;;;;;;;1.65;100.00;98815.46;105910;1254;72544;-72
2024/02/11 03:06:58;;;;;;;39.60;19.40;;;;;;;1.68;100.00;98816.29;105628;1256;69031;-74
2024/02/11 03:09:26;;;;;;;38.20;21.00;;;;;;;1.71;100.00;98814.58;105898;1254;72897;-73
2024/02/11 03:11:53;;;;;;;39.50;20.80;;;;;;;1.71;100.00;98819.46;105982;1254;60760;-74
2024/02/11 03:14:21;;;;;;;36.00;20.50;;;;;;;1.70;100.00;98824.77;105905;1258;60451;-75
2024/02/11 03:16:49;;;;;;;37.70;19.30;;;;;;;1.72;100.00;98818.36;105923;1250;74549;-73
2024/02/11 03:19:17;;;;;;;43.50;19.00;;;;;;;1.70;100.00;98813.42;105993;1250;68727;-74
2024/02/11 03:21:48;;;;;;;44.00;21.10;;;;;;;1.64;100.00;98812.94;105980;1253;72972;-74
2024/02/11 03:24:21;;;;;;;38.80;21.10;;;;;;;1.59;100.00;98812.69;105938;1253;61866;-74
2024/02/11 03:26:48;;;;;;;39.10;21.00;;;;;;;1.59;100.00;98807.61;105933;1250;61223;-74
2024/02/11 03:29:18;;;;;;;36.10;21.20;;;;;;;1.58;100.00;98801.10;105798;1256;73868;-75
2024/02/11 03:31:46;;;;;;;52.80;24.90;;;;;;;1.57;100.00;98803.58;106081;1251;70447;-74
2024/02/11 03:34:14;;;;;;;45.60;22.50;;;;;;;1.53;100.00;98806.21;105953;1253;71392;-74
2024/02/11 03:36:42;;;;;;;43.60;24.40;;;;;;;1.53;100.00;98810.10;106062;1255;60425;-74
2024/02/11 03:39:10;;;;;;;43.10;23.40;;;;;;;1.55;100.00;98808.32;105772;1252;60419;-74
2024/02/11 03:41:38;;;;;;;53.60;24.50;;;;;;;1.55;100.00;98816.12;106054;1256;73769;-75
2024/02/11 03:44:06;;;;;;;43.50;22.40;;;;;;;1.48;100.00;98812.89;106683;1259;69174;-73
2024/02/11 03:46:34;;;;;;;49.60;24.10;;;;;;;1.42;100.00;98809.66;108000;1250;71589;-75
2024/02/11 03:49:02;;;;;;;44.00;23.90;;;;;;;1.42;100.00;98808.98;107544;1256;61681;-74
2024/02/11 03:51:30;;;;;;;51.50;23.60;;;;;;;1.41;100.00;98810.06;106050;1250;60614;-73
2024/02/11 03:54:00;;;;;;;54.30;21.80;;;;;;;1.39;100.00;98809.70;105957;1253;73803;-74
2024/02/11 03:56:29;;;;;;;42.90;21.60;;;;;;;1.35;100.00;98802.05;105872;1257;70193;-76
2024/02/11 03:58:57;;;;;;;49.00;22.40;;;;;;;1.35;100.00;98799.44;105926;1253;72796;-74
2024/02/11 04:01:25;;;;;;;41.90;21.60;;;;;;;1.35;100.00;98802.86;105741;1253;61732;-73
2024/02/11 04:03:53;;;;;;;52.40;22.50;;;;;;;1.35;100.00;98807.26;105832;1250;60582;-74
2024/02/11 04:06:20;;;;;;;48.50;23.70;;;;;;;1.30;100.00;98810.14;105861;1256;72636;-75
2024/02/11 04:08:51;;;;;;;44.60;24.00;;;;;;;1.28;100.00;98810.29;105971;1251;69208;-74
2024/02/11 04:11:20;;;;;;;45.50;23.50;;;;;;;1.34;100.00;98812.75;105916;1256;72457;-72
2024/02/11 04:13:48;;;;;;;51.80;26.50;;;;;;;1.35;100.00;98809.48;106005;1256;60940;-74
2024/02/11 04:16:16;;;;;;;47.40;23.90;;;;;;;1.34;100.00;98809.80;106047;1258;60331;-73
2024/02/11 04:18:47;;;;;;;44.10;24.70;;;;;;;1.37;100.00;98811.79;105865;1253;74417;-74
2024/02/11 04:21:19;;;;;;;53.70;25.10;;;;;;;1.42;100.00;98815.22;105719;1250;69063;-76
2024/02/11 04:23:48;;;;;;;43.30;24.50;;;;;;;1.38;100.00;98815.17;105950;1250;71673;-76
2024/02/11 04:26:17;;;;;;;49.60;25.20;;;;;;;1.35;100.00;98806.16;105962;1256;60565;-73
2024/02/11 04:28:47;;;;;;;48.70;26.40;;;;;;;1.38;100.00;98798.12;105916;1250;60885;-74
2024/02/11 04:31:16;;;;;;;49.70;25.80;;;;;;;1.43;100.00;98798.77;105842;1250;72736;-74
2024/02/11 04:33:46;;;;;;;46.60;24.80;;;;;;;1.40;100.00;98798.63;105975;1256;67827;-73
2024/02/11 04:36:16;;;;;;;51.90;26.90;;;;;;;1.38;100.00;98798.80;106011;1250;71531;-73
2024/02/11 04:38:45;;;;;;;47.20;25.40;;;;;;;1.43;100.00;98801.31;106538;1250;61646;-73
2024/02/11 04:41:13;;;;;;;46.70;25.40;;;;;;;1.47;100.00;98800.09;106140;1250;60672;-75
2024/02/11 04:43:44;;;;;;;45.90;25.00;;;;;;;1.46;100.00;98802.30;106676;1250;73804;-74
2024/02/11 04:46:13;;;;;;;44.70;25.40;;;;;;;1.44;100.00;98796.77;107144;1250;69346;-76
2024/02/11 04:48:41;;;;;;;43.30;25.50;;;;;;;1.46;100.00;98794.45;106683;1253;72793;-75
2024/02/11 04:51:09;;;;;;;45.40;24.80;;;;;;;1.47;100.00;98799.58;106081;1256;60451;-71
2024/02/11 04:53:38;;;;;;;43.40;24.90;;;;;;;1.42;100.00;98800.23;106107;1255;60379;-72
2024/02/11 04:56:06;;;;;;;42.10;23.70;;;;;;;1.35;100.00;98797.11;105919;1256;73838;-74
2024/02/11 04:58:34;;;;;;;43.40;24.50;;;;;;;1.36;100.00;98798.78;105863;1256;69317;-74
2024/02/11 05:01:02;;;;;;;47.00;22.90;;;;;;;1.37;100.00;98800.77;105815;1253;71391;-75
2024/02/11 05:03:30;;;;;;;42.10;24.10;;;;;;;1.34;100.00;98803.13;105999;1252;60445;-75
2024/02/11 05:05:59;;;;;;;45.10;24.80;;;;;;;1.31;100.00;98803.44;105815;1259;60441;-74
2024/02/11 05:08:28;;;;;;;41.80;23.20;;;;;;;1.34;100.00;98805.73;105961;1256;72668;-74
2024/02/11 05:10:55;;;;;;;47.20;25.60;;;;;;;1.36;100.00;98801.23;105881;1256;68733;-74
2024/02/11 05:13:27;;;;;;;43.90;23.70;;;;;;;1.33;100.00;98805.33;105729;1251;202743;-74
2024/02/11 05:15:59;;;;;;;41.50;22.80;;;;;;;1.33;100.00;98807.95;105886;1253;61693;-74
2024/02/11 05:19:05;;;;;;;46.20;22.70;;;;;;;1.36;100.00;98813.77;103258;1285;600353;-71
2024/02/11 05:21:34;;;;;;;33.70;20.70;;;;;;;1.30;100.00;98813.11;105015;1269;60385;-74
2024/02/11 05:24:01;;;;;;;42.20;24.10;;;;;;;1.31;100.00;98811.79;104967;1266;60012;-73
2024/02/11 05:26:29;;;;;;;41.10;24.60;;;;;;;1.33;100.00;98814.90;105684;1262;72303;-73
2024/02/11 05:29:01;;;;;;;46.50;26.00;;;;;;;1.34;100.00;98820.73;105681;1256;70657;-74
2024/02/11 05:31:29;;;;;;;45.80;26.40;;;;;;;1.34;100.00;98810.76;105571;1256;71444;-75
2024/02/11 05:34:00;;;;;;;43.90;25.90;;;;;;;1.40;100.00;98817.63;105647;1257;159262;-76
2024/02/11 05:36:28;;;;;;;41.40;24.90;;;;;;;1.46;100.00;98818.36;105742;1253;59750;-75
2024/02/11 05:38:55;;;;;;;39.30;25.10;;;;;;;1.44;100.00;98817.52;105840;1253;71016;-75
2024/02/11 05:41:23;;;;;;;41.20;24.60;;;;;;;1.46;100.00;98816.44;105712;1256;68671;-74
2024/02/11 05:43:50;;;;;;;41.10;24.10;;;;;;;1.48;100.00;98820.11;105816;1257;72367;-74
2024/02/11 05:46:18;;;;;;;38.20;23.70;;;;;;;1.43;100.00;98819.14;107115;1259;61678;-73
2024/02/11 05:48:45;;;;;;;36.30;23.00;;;;;;;1.43;100.00;98820.88;107318;1253;59634;-73
2024/02/11 05:51:13;;;;;;;32.40;20.60;;;;;;;1.44;100.00;98819.52;106051;1253;71790;-75
2024/02/11 05:53:41;;;;;;;33.70;20.50;;;;;;;1.43;100.00;98822.98;105789;1259;68753;-73
2024/02/11 05:56:09;;;;;;;32.90;20.20;;;;;;;1.41;100.00;98822.98;105810;1259;71469;-74
2024/02/11 05:58:38;;;;;;;30.40;18.80;;;;;;;1.43;100.00;98827.33;105535;1263;61679;-74
2024/02/11 06:01:06;;;;;;;32.20;17.80;;;;;;;1.45;100.00;98821.76;105821;1257;59853;-77
2024/02/11 06:03:35;;;;;;;30.00;18.50;;;;;;;1.44;100.00;98835.67;106055;1253;72232;-76
2024/02/11 06:06:06;;;;;;;33.70;19.50;;;;;;;1.43;100.00;98831.87;106276;1256;71751;-76
2024/02/11 06:08:35;;;;;;;29.00;17.30;;;;;;;1.47;100.00;98834.83;105879;1258;70305;-77
2024/02/11 06:11:03;;;;;;;28.80;18.60;;;;;;;1.51;100.00;98843.19;105876;1256;59740;-77
2024/02/11 06:13:31;;;;;;;28.40;17.80;;;;;;;1.45;100.00;98835.23;105726;1256;59795;-76
2024/02/11 06:15:58;;;;;;;29.50;18.10;;;;;;;1.44;100.00;98832.00;106003;1253;71941;-77
2024/02/11 06:18:26;;;;;;;33.60;18.70;;;;;;;1.48;100.00;98836.15;105766;1258;70009;-76
2024/02/11 06:20:54;;;;;;;31.70;19.10;;;;;;;1.50;100.00;98828.61;105828;1258;70764;-76
2024/02/11 06:23:22;;;;;;;27.60;17.60;;;;;;;1.53;100.00;98828.38;105630;1253;60100;-74
2024/02/11 06:25:52;;;;;;;30.00;16.70;;;;;;;1.54;100.00;98823.77;105894;1253;59744;-75
2024/02/11 06:28:21;;;;;;;32.80;19.70;;;;;;;1.61;100.00;98816.73;105846;1255;73006;-76
2024/02/11 06:30:48;;;;;;;31.40;18.40;;;;;;;1.66;100.00;98818.91;105718;1253;70164;-77
2024/02/11 06:33:17;;;;;;;31.00;19.20;;;;;;;1.64;100.00;98815.06;105769;1253;71072;-77
2024/02/11 06:35:45;;;;;;;35.80;20.70;;;;;;;1.60;100.00;98809.46;105876;1253;61779;-78
2024/02/11 06:38:12;;;;;;;35.30;20.00;;;;;;;1.63;100.00;98802.36;105658;1258;59775;-77
2024/02/11 06:40:40;;;;;;;35.10;19.20;;;;;;;1.70;100.00;98807.94;105861;1258;72851;-80
2024/02/11 06:43:11;;;;;;;32.40;18.50;;;;;;;1.70;100.00;98810.00;106227;1258;68544;-78
2024/02/11 06:45:40;;;;;;;31.30;18.80;;;;;;;1.68;100.00;98803.55;107216;1256;73113;-78
2024/02/11 06:48:08;;;;;;;28.30;17.70;;;;;;;1.63;100.00;98794.14;108269;1253;60401;-76
2024/02/11 06:50:38;;;;;;;33.60;19.70;;;;;;;1.65;100.00;98798.06;107328;1256;59234;-75
2024/02/11 06:53:07;;;;;;;28.20;17.60;;;;;;;1.68;100.00;98801.60;105855;1257;73040;-76
2024/02/11 06:55:35;;;;;;;31.60;20.60;;;;;;;1.73;100.00;98803.77;105952;1258;69103;-76
2024/02/11 06:58:03;;;;;;;33.30;20.10;;;;;;;1.75;100.00;98810.42;105845;1257;71535;-76
2024/02/11 07:00:30;;;;;;;34.40;20.50;;;;;;;1.79;100.00;98808.86;105632;1253;60426;-76
2024/02/11 07:03:02;;;;;;;34.20;20.20;;;;;;;1.86;100.00;98810.02;105680;1253;60026;-76
2024/02/11 07:05:30;;;;;;;28.00;18.20;;;;;;;1.92;100.00;98804.38;105890;1257;73197;-75
2024/02/11 07:08:01;;;;;;;34.30;20.70;;;;;;;2.00;100.00;98801.79;105903;1258;68707;-77
2024/02/11 07:10:29;;;;;;;30.20;19.30;;;;;;;1.98;100.00;98808.20;105598;1256;71389;-76
2024/02/11 07:12:57;;;;;;;30.20;18.10;;;;;;;1.96;100.00;98811.00;106096;1256;60445;-76
2024/02/11 07:15:25;;;;;;;34.70;18.90;;;;;;;1.96;100.00;98814.55;106817;1253;59637;-74
2024/02/11 07:17:53;;;;;;;29.40;18.60;;;;;;;1.99;100.00;98819.29;106971;1253;71935;-76
2024/02/11 07:20:22;;;;;;;27.90;16.00;;;;;;;2.02;100.00;98818.17;106492;1253;70128;-76
2024/02/11 07:22:50;;;;;;;29.40;17.90;;;;;;;1.98;100.00;98818.70;106098;1253;71458;-76
2024/02/11 07:25:17;;;;;;;28.50;18.10;;;;;;;1.96;100.00;98816.77;105950;1258;61837;-77
2024/02/11 07:27:45;;;;;;;30.70;18.20;;;;;;;1.97;100.00;98818.98;105927;1257;60001;-75
2024/02/11 07:30:13;;;;;;;28.20;19.60;;;;;;;1.98;100.00;98819.44;105899;1255;72900;-76
2024/02/11 07:32:44;;;;;;;31.20;19.20;;;;;;;1.93;100.00;98824.33;105785;1258;67877;-76
2024/02/11 07:35:12;;;;;;;24.70;16.40;;;;;;;1.88;100.00;98825.70;105891;1254;71302;-74
2024/02/11 07:37:43;;;;;;;32.20;18.80;;;;;;;1.88;100.00;98832.52;105553;1254;61720;-75
2024/02/11 07:40:14;;;;;;;30.30;18.50;;;;;;;1.88;100.00;98835.67;105934;1254;60026;-76
2024/02/11 07:42:43;;;;;;;29.00;18.50;;;;;;;1.89;100.00;98844.84;105846;1253;71745;-75
2024/02/11 07:45:14;;;;;;;27.30;16.40;;;;;;;1.88;100.00;98840.02;106468;1253;69055;-74
2024/02/11 07:47:47;;;;;;;30.20;18.50;;;;;;;1.92;100.00;98846.16;107675;1254;72761;-75
2024/02/11 07:50:17;;;;;;;30.10;18.90;;;;;;;1.97;100.00;98846.70;107031;1258;59772;-75
2024/02/11 07:52:46;;;;;;;27.60;16.80;;;;;;;2.01;100.00;98855.81;105800;1256;60076;-75
2024/02/11 07:55:16;;;;;;;28.90;19.10;;;;;;;2.08;100.00;98865.69;105721;1253;71792;-75
2024/02/11 07:57:44;;;;;;;30.70;20.00;;;;;;;2.09;100.00;98861.07;105823;1254;69419;-76
2024/02/11 08:00:19;;;;;;;30.70;19.20;;;;;;;2.09;100.00;98853.54;105883;1257;72922;-75
2024/02/11 08:02:50;;;;;;;31.90;20.10;;;;;;;2.07;100.00;98857.59;105697;1256;62071;-77
2024/02/11 08:05:21;;;;;;;32.70;21.30;;;;;;;2.10;100.00;98865.33;105630;1255;59774;-75
2024/02/11 08:07:51;;;;;;;33.50;20.00;;;;;;;2.15;100.00;98865.77;105623;1259;73235;-77
2024/02/11 08:10:21;;;;;;;32.80;20.80;;;;;;;2.20;100.00;98866.23;105885;1259;68873;-76
2024/02/11 08:12:50;;;;;;;34.40;21.50;;;;;;;2.27;100.00;98868.77;105925;1259;71080;-75
2024/02/11 08:15:17;;;;;;;29.50;18.70;;;;;;;2.38;100.00;98867.88;105689;1259;61542;-76
2024/02/11 08:17:45;;;;;;;30.10;19.70;;;;;;;2.47;100.00;98867.67;105747;1256;59623;-76
2024/02/11 08:20:12;;;;;;;31.00;18.90;;;;;;;2.43;100.00;98865.56;105853;1258;73101;-76
2024/02/11 08:22:40;;;;;;;31.00;18.80;;;;;;;2.36;100.00;98867.94;105889;1259;68998;-77
2024/02/11 08:25:09;;;;;;;31.30;19.00;;;;;;;2.31;100.00;98872.56;105731;1259;72944;-75
2024/02/11 08:27:37;;;;;;;34.60;21.00;;;;;;;2.28;100.00;98871.05;105788;1259;60096;-75
2024/02/11 08:30:09;;;;;;;33.00;19.90;;;;;;;2.31;100.00;98866.77;105716;1260;60107;-75
2024/02/11 08:32:38;;;;;;;29.80;18.80;;;;;;;2.35;100.00;98870.48;106192;1259;73168;-77
2024/02/11 08:35:06;;;;;;;34.50;20.40;;;;;;;2.37;100.00;98871.66;106452;1253;70124;-75
2024/02/11 08:37:34;;;;;;;32.60;19.90;;;;;;;2.42;100.00;98866.50;105754;1261;71465;-77
2024/02/11 08:40:03;;;;;;;33.80;20.60;;;;;;;2.46;100.00;98860.21;106054;1258;59570;-75
2024/02/11 08:42:30;;;;;;;28.50;17.60;;;;;;;2.51;100.00;98865.13;105892;1258;59648;-75
2024/02/11 08:44:58;;;;;;;31.30;19.00;;;;;;;2.58;100.00;98856.84;107734;1257;73178;-75
2024/02/11 08:47:25;;;;;;;31.40;19.80;;;;;;;2.54;100.00;98863.15;108087;1256;68978;-76
2024/02/11 08:49:53;;;;;;;38.20;21.00;;;;;;;2.44;100.00;98863.55;106419;1257;71922;-75
2024/02/11 08:52:21;;;;;;;28.90;18.20;;;;;;;2.39;100.00;98868.91;105913;1259;60382;-75
2024/02/11 08:54:49;;;;;;;31.00;18.80;;;;;;;2.43;100.00;98867.28;105810;1254;59564;-77
2024/02/11 08:57:26;;;;;;;32.20;20.20;;;;;;;2.46;100.00;98868.60;105662;1258;72912;-75
2024/02/11 08:59:54;;;;;;;32.20;19.60;;;;;;;2.44;100.00;98871.58;105838;1254;70002;-74
2024/02/11 09:02:25;;;;;;;34.30;19.20;;;;;;;2.47;100.00;98871.30;105823;1259;71461;-74
2024/02/11 09:04:58;;;;;;;33.70;19.60;;;;;;;2.55;100.00;98873.21;105651;1259;61687;-75
2024/02/11 09:07:25;;;;;;;30.60;19.70;;;;;;;2.61;100.00;98868.66;105901;1257;59653;-75
2024/02/11 09:09:53;;;;;;;37.40;21.10;;;;;;;2.60;100.00;98876.30;105791;1259;73053;-76
2024/02/11 09:12:22;;;;;;;34.20;20.50;;;;;;;2.56;100.00;98878.55;105710;1253;68860;-76
2024/02/11 09:14:49;;;;;;;31.40;19.80;;;;;;;2.58;100.00;98876.10;105704;1261;72681;-73
2024/02/11 09:17:17;;;;;;;29.90;19.90;;;;;;;2.60;100.00;98869.59;105900;1259;59611;-75
2024/02/11 09:19:44;;;;;;;31.70;20.30;;;;;;;2.62;100.00;98871.68;105743;1259;60178;-75
2024/02/11 09:22:12;;;;;;;31.30;20.20;;;;;;;2.64;100.00;98870.99;105588;1262;73214;-76
2024/02/11 09:24:41;;;;;;;30.80;19.00;;;;;;;2.71;100.00;98873.86;105847;1256;69930;-75
2024/02/11 09:27:10;;;;;;;28.00;18.80;;;;;;;2.72;100.00;98877.77;105807;1260;72672;-76
2024/02/11 09:29:38;;;;;;;31.30;19.50;;;;;;;2.64;100.00;98878.51;105834;1253;60470;-76
2024/02/11 09:32:06;;;;;;;30.50;19.40;;;;;;;2.61;100.00;98878.31;105609;1257;60599;-77
2024/02/11 09:34:34;;;;;;;28.30;17.90;;;;;;;2.65;100.00;98868.99;105775;1254;73796;-76
2024/02/11 09:37:03;;;;;;;31.30;19.60;;;;;;;2.70;100.00;98863.52;105865;1253;69027;-76
2024/02/11 09:39:31;;;;;;;27.90;18.60;;;;;;;2.72;100.00;98851.72;106219;1254;71944;-75
2024/02/11 09:41:59;;;;;;;29.00;20.10;;;;;;;2.72;100.00;98857.66;107929;1254;59179;-76
2024/02/11 09:44:27;;;;;;;29.80;19.40;;;;;;;2.78;100.00;98853.84;106917;1254;59432;-76
2024/02/11 09:46:55;;;;;;;28.40;19.00;;;;;;;2.84;100.00;98852.23;106193;1258;73984;-76
2024/02/11 09:49:23;;;;;;;33.40;20.10;;;;;;;2.87;100.00;98855.84;105839;1257;70156;-75
2024/02/11 09:51:50;;;;;;;30.00;19.40;;;;;;;2.90;100.00;98860.44;105893;1259;71431;-76
2024/02/11 09:54:18;;;;;;;30.30;19.00;;;;;;;2.93;100.00;98854.70;105657;1252;62776;-76
2024/02/11 09:56:46;;;;;;;28.30;19.50;;;;;;;3.02;100.00;98853.34;105734;1257;60786;-75
2024/02/11 09:59:13;;;;;;;30.90;20.10;;;;;;;3.12;100.00;98852.13;105762;1258;73864;-76
2024/02/11 10:01:43;;;;;;;32.90;22.10;;;;;;;3.16;100.00;98844.44;106043;1254;69691;-76
2024/02/11 10:04:11;;;;;;;36.70;21.80;;;;;;;3.20;100.00;98838.39;105884;1260;73012;-76
2024/02/11 10:06:39;;;;;;;26.60;18.90;;;;;;;3.26;100.00;98838.02;105721;1259;61679;-76
2024/02/11 10:09:10;;;;;;;30.00;19.80;;;;;;;3.29;100.00;98839.98;105793;1257;60000;-76
2024/02/11 10:11:39;;;;;;;28.20;18.80;;;;;;;3.28;100.00;98839.98;105823;1258;72122;-75
2024/02/11 10:14:13;;;;;;;27.70;18.90;;;;;;;3.29;100.00;98840.41;105849;1253;68243;-75
2024/02/11 10:16:41;;;;;;;32.40;19.90;;;;;;;3.26;100.00;98840.15;105710;1257;72710;-75
2024/02/11 10:19:09;;;;;;;27.90;18.40;;;;;;;3.22;100.00;98840.02;105905;1254;62004;-77
2024/02/11 10:21:37;;;;;;;26.20;17.50;;;;;;;3.25;100.00;98842.66;105773;1257;60485;-76
2024/02/11 10:24:05;;;;;;;29.10;19.70;;;;;;;3.30;100.00;98838.73;105840;1259;73916;-75
2024/02/11 10:26:34;;;;;;;29.70;20.20;;;;;;;3.26;100.00;98840.09;105769;1258;68733;-76
2024/02/11 10:29:03;;;;;;;30.60;18.40;;;;;;;3.21;100.00;98834.17;105729;1254;72474;-75
2024/02/11 10:31:31;;;;;;;27.90;18.40;;;;;;;3.25;100.00;98836.52;105785;1258;60512;-77
2024/02/11 10:33:58;;;;;;;33.20;20.00;;;;;;;3.31;100.00;98829.54;105950;1254;60490;-77
2024/02/11 10:36:27;;;;;;;27.60;18.60;;;;;;;3.32;100.00;98822.77;106555;1260;73958;-77
2024/02/11 10:38:56;;;;;;;27.00;19.40;;;;;;;3.31;100.00;98818.20;106545;1254;69940;-79
2024/02/11 10:41:23;;;;;;;30.00;19.70;;;;;;;3.34;100.00;98817.31;107709;1260;72323;-76
2024/02/11 10:43:52;;;;;;;23.90;17.90;;;;;;;3.39;100.00;98815.99;107649;1259;60498;-76
2024/02/11 10:46:20;;;;;;;29.40;19.50;;;;;;;3.37;100.00;98815.31;106240;1259;60512;-75
2024/02/11 10:48:48;;;;;;;29.20;19.50;;;;;;;3.31;100.00;98817.41;105992;1257;73980;-75
2024/02/11 10:51:23;;;;;;;29.20;18.70;;;;;;;3.32;100.00;98813.79;105803;1258;70267;-77
2024/02/11 10:54:01;;;;;;;29.50;19.80;;;;;;;3.38;100.00;98818.52;106002;1257;72670;-77
2024/02/11 10:56:29;;;;;;;30.30;20.30;;;;;;;3.41;100.00;98817.72;105761;1254;60515;-77
2024/02/11 10:59:10;;;;;;;28.40;19.70;;;;;;;3.41;100.00;98814.73;106004;1254;61247;-76
2024/02/11 11:01:38;;;;;;;27.60;18.20;;;;;;;3.47;100.00;98812.29;105883;1259;73082;-76
2024/02/11 11:04:15;;;;;;;31.40;20.10;;;;;;;3.49;100.00;98814.05;105838;1257;69953;-76
2024/02/11 11:06:43;;;;;;;29.40;19.50;;;;;;;3.43;100.00;98815.92;105916;1255;72795;-76
2024/02/11 11:09:11;;;;;;;27.50;20.00;;;;;;;3.36;100.00;98819.77;106727;1253;60485;-76
2024/02/11 11:11:39;;;;;;;31.60;20.40;;;;;;;3.37;100.00;98817.94;106968;1254;60415;-75
2024/02/11 11:14:08;;;;;;;28.80;20.40;;;;;;;3.39;100.00;98815.80;107564;1253;72687;-77
2024/02/11 11:16:41;;;;;;;31.30;21.70;;;;;;;3.32;100.00;98811.00;107573;1256;71264;-76